sensor_id;sensor_type;location;lat;lon;timestamp;temperature;humidity
59015;DHT22;44799;53.382;14.666;2023-03-31T00:00:09;9.70;99.90
59015;DHT22;44799;53.382;14.666;2023-03-31T00:02:39;9.70;99.90
59015;DHT22;44799;53.382;14.666;2023-03-31T00:05:08;9.70;99.90
59015;DHT22;44799;53.382;14.666;2023-03-31T00:07:34;9.70;99.90
59015;DHT22;44799;53.382;14.666;2023-03-31T00:10:05;9.70;99.90
59015;DHT22;44799;53.382;14.666;2023-03-31T00:12:32;9.70;99.90
59015;DHT22;44799;53.382;14.666;2023-03-31T00:14:57;7.30;99.90
59015;DHT22;44799;53.382;14.666;2023-03-31T00:17:23;9.60;99.90
59015;DHT22;44799;53.382;14.666;2023-03-31T00:19:48;9.60;99.90
59015;DHT22;44799;53.382;14.666;2023-03-31T00:22:15;7.80;99.90
59015;DHT22;44799;53.382;14.666;2023-03-31T00:24:43;9.60;99.90
59015;DHT22;44799;53.382;14.666;2023-03-31T00:27:08;9.60;99.90
59015;DHT22;44799;53.382;14.666;2023-03-31T00:29:35;9.60;99.90
59015;DHT22;44799;53.382;14.666;2023-03-31T00:32:05;8.80;99.90
59015;DHT22;44799;53.382;14.666;2023-03-31T00:34:31;9.60;99.90
59015;DHT22;44799;53.382;14.666;2023-03-31T00:36:56;9.60;99.90
59015;DHT22;44799;53.382;14.666;2023-03-31T00:39:27;9.60;99.90
59015;DHT22;44799;53.382;14.666;2023-03-31T00:42:01;9.70;99.90
59015;DHT22;44799;53.382;14.666;2023-03-31T00:44:27;9.70;99.90
59015;DHT22;44799;53.382;14.666;2023-03-31T00:46:55;9.70;99.90
59015;DHT22;44799;53.382;14.666;2023-03-31T00:49:26;9.70;99.90
59015;DHT22;44799;53.382;14.666;2023-03-31T00:51:53;9.80;99.90
59015;DHT22;44799;53.382;14.666;2023-03-31T00:54:20;9.80;99.90
59015;DHT22;44799;53.382;14.666;2023-03-31T00:56:47;9.80;99.90
59015;DHT22;44799;53.382;14.666;2023-03-31T00:59:13;9.90;99.90
59015;DHT22;44799;53.382;14.666;2023-03-31T01:01:39;9.90;99.90
59015;DHT22;44799;53.382;14.666;2023-03-31T01:04:07;9.40;99.90
59015;DHT22;44799;53.382;14.666;2023-03-31T01:06:35;9.90;99.90
59015;DHT22;44799;53.382;14.666;2023-03-31T01:09:04;9.90;99.90
59015;DHT22;44799;53.382;14.666;2023-03-31T01:11:31;9.90;99.90
59015;DHT22;44799;53.382;14.666;2023-03-31T01:13:58;9.90;99.90
59015;DHT22;44799;53.382;14.666;2023-03-31T01:16:23;9.90;99.90
59015;DHT22;44799;53.382;14.666;2023-03-31T01:18:49;9.50;99.90
59015;DHT22;44799;53.382;14.666;2023-03-31T01:26:42;10.50;99.90
59015;DHT22;44799;53.382;14.666;2023-03-31T01:31:47;10.00;99.90
59015;DHT22;44799;53.382;14.666;2023-03-31T01:46:57;9.90;99.90
59015;DHT22;44799;53.382;14.666;2023-03-31T01:49:31;9.90;99.90
59015;DHT22;44799;53.382;14.666;2023-03-31T01:51:59;9.90;99.90
59015;DHT22;44799;53.382;14.666;2023-03-31T01:59:47;9.90;99.90
59015;DHT22;44799;53.382;14.666;2023-03-31T02:02:25;9.40;99.90
59015;DHT22;44799;53.382;14.666;2023-03-31T02:05:02;9.90;99.90
59015;DHT22;44799;53.382;14.666;2023-03-31T02:07:31;11.20;99.90
59015;DHT22;44799;53.382;14.666;2023-03-31T02:10:00;9.90;99.90
59015;DHT22;44799;53.382;14.666;2023-03-31T02:12:26;9.90;99.90
59015;DHT22;44799;53.382;14.666;2023-03-31T02:14:53;9.90;99.90
59015;DHT22;44799;53.382;14.666;2023-03-31T02:17:21;9.90;99.90
59015;DHT22;44799;53.382;14.666;2023-03-31T02:19:48;9.90;99.90
59015;DHT22;44799;53.382;14.666;2023-03-31T02:22:15;9.90;99.90
59015;DHT22;44799;53.382;14.666;2023-03-31T02:24:44;10.00;99.90
59015;DHT22;44799;53.382;14.666;2023-03-31T02:27:24;10.00;99.90
59015;DHT22;44799;53.382;14.666;2023-03-31T02:29:51;10.00;99.90
59015;DHT22;44799;53.382;14.666;2023-03-31T02:34:49;10.00;99.90
59015;DHT22;44799;53.382;14.666;2023-03-31T02:37:15;9.60;99.90
59015;DHT22;44799;53.382;14.666;2023-03-31T02:39:41;11.50;99.90
59015;DHT22;44799;53.382;14.666;2023-03-31T02:42:08;9.90;99.90
59015;DHT22;44799;53.382;14.666;2023-03-31T02:44:37;9.90;99.90
59015;DHT22;44799;53.382;14.666;2023-03-31T02:47:04;10.00;99.90
59015;DHT22;44799;53.382;14.666;2023-03-31T02:49:31;10.00;99.90
59015;DHT22;44799;53.382;14.666;2023-03-31T02:57:11;9.90;99.90
59015;DHT22;44799;53.382;14.666;2023-03-31T03:02:34;8.70;99.90
59015;DHT22;44799;53.382;14.666;2023-03-31T03:12:37;9.80;99.90
59015;DHT22;44799;53.382;14.666;2023-03-31T03:15:05;10.30;99.90
59015;DHT22;44799;53.382;14.666;2023-03-31T03:17:39;9.90;99.90
59015;DHT22;44799;53.382;14.666;2023-03-31T03:20:06;9.40;99.90
59015;DHT22;44799;53.382;14.666;2023-03-31T03:22:34;9.80;99.90
59015;DHT22;44799;53.382;14.666;2023-03-31T03:25:00;9.80;99.90
59015;DHT22;44799;53.382;14.666;2023-03-31T03:27:25;9.90;99.90
59015;DHT22;44799;53.382;14.666;2023-03-31T03:29:51;9.80;99.90
59015;DHT22;44799;53.382;14.666;2023-03-31T03:32:16;9.90;99.90
59015;DHT22;44799;53.382;14.666;2023-03-31T03:34:42;10.20;99.90
59015;DHT22;44799;53.382;14.666;2023-03-31T03:37:08;9.80;99.90
59015;DHT22;44799;53.382;14.666;2023-03-31T03:39:34;9.80;99.90
59015;DHT22;44799;53.382;14.666;2023-03-31T03:41:59;9.80;99.90
59015;DHT22;44799;53.382;14.666;2023-03-31T03:44:25;9.80;99.90
59015;DHT22;44799;53.382;14.666;2023-03-31T03:46:51;9.80;99.90
59015;DHT22;44799;53.382;14.666;2023-03-31T03:49:16;9.60;99.90
59015;DHT22;44799;53.382;14.666;2023-03-31T03:51:42;9.90;99.90
59015;DHT22;44799;53.382;14.666;2023-03-31T03:54:08;8.00;99.90
59015;DHT22;44799;53.382;14.666;2023-03-31T03:56:33;9.90;99.90
59015;DHT22;44799;53.382;14.666;2023-03-31T03:58:59;9.90;99.90
59015;DHT22;44799;53.382;14.666;2023-03-31T04:01:25;9.80;99.90
59015;DHT22;44799;53.382;14.666;2023-03-31T04:03:50;9.90;99.90
59015;DHT22;44799;53.382;14.666;2023-03-31T04:06:16;9.40;99.90
59015;DHT22;44799;53.382;14.666;2023-03-31T04:08:42;10.00;99.90
59015;DHT22;44799;53.382;14.666;2023-03-31T04:11:11;9.90;99.90
59015;DHT22;44799;53.382;14.666;2023-03-31T04:13:38;9.90;99.90
59015;DHT22;44799;53.382;14.666;2023-03-31T04:16:03;9.90;99.90
59015;DHT22;44799;53.382;14.666;2023-03-31T04:18:29;9.90;99.90
59015;DHT22;44799;53.382;14.666;2023-03-31T04:20:55;9.90;99.90
59015;DHT22;44799;53.382;14.666;2023-03-31T04:23:30;10.00;99.90
59015;DHT22;44799;53.382;14.666;2023-03-31T04:25:56;10.00;99.90
59015;DHT22;44799;53.382;14.666;2023-03-31T04:28:22;10.00;99.90
59015;DHT22;44799;53.382;14.666;2023-03-31T04:30:48;9.90;99.90
59015;DHT22;44799;53.382;14.666;2023-03-31T04:33:13;9.90;99.90
59015;DHT22;44799;53.382;14.666;2023-03-31T04:35:43;10.70;99.90
59015;DHT22;44799;53.382;14.666;2023-03-31T04:38:23;10.00;99.90
59015;DHT22;44799;53.382;14.666;2023-03-31T04:40:52;11.00;99.90
59015;DHT22;44799;53.382;14.666;2023-03-31T04:43:18;10.00;99.90
59015;DHT22;44799;53.382;14.666;2023-03-31T04:45:44;10.00;99.90
59015;DHT22;44799;53.382;14.666;2023-03-31T04:48:10;10.00;99.90
59015;DHT22;44799;53.382;14.666;2023-03-31T04:50:36;10.00;99.90
59015;DHT22;44799;53.382;14.666;2023-03-31T04:53:02;9.50;99.90
59015;DHT22;44799;53.382;14.666;2023-03-31T04:55:28;10.00;99.90
59015;DHT22;44799;53.382;14.666;2023-03-31T04:57:53;10.60;99.90
59015;DHT22;44799;53.382;14.666;2023-03-31T05:00:19;10.10;99.90
59015;DHT22;44799;53.382;14.666;2023-03-31T05:02:45;10.10;99.90
59015;DHT22;44799;53.382;14.666;2023-03-31T05:05:11;10.10;99.90
59015;DHT22;44799;53.382;14.666;2023-03-31T05:07:37;10.10;99.90
59015;DHT22;44799;53.382;14.666;2023-03-31T05:10:03;10.10;99.90
59015;DHT22;44799;53.382;14.666;2023-03-31T05:12:32;10.10;99.90
59015;DHT22;44799;53.382;14.666;2023-03-31T05:14:58;10.00;99.90
59015;DHT22;44799;53.382;14.666;2023-03-31T05:17:23;10.20;99.90
59015;DHT22;44799;53.382;14.666;2023-03-31T05:19:49;10.20;99.90
59015;DHT22;44799;53.382;14.666;2023-03-31T05:22:15;10.30;99.90
59015;DHT22;44799;53.382;14.666;2023-03-31T05:24:45;10.30;99.90
59015;DHT22;44799;53.382;14.666;2023-03-31T05:27:10;10.30;99.90
59015;DHT22;44799;53.382;14.666;2023-03-31T05:29:36;10.40;99.90
59015;DHT22;44799;53.382;14.666;2023-03-31T05:32:02;10.30;99.90
59015;DHT22;44799;53.382;14.666;2023-03-31T05:34:27;10.40;99.90
59015;DHT22;44799;53.382;14.666;2023-03-31T05:36:53;10.30;99.90
59015;DHT22;44799;53.382;14.666;2023-03-31T05:39:19;10.30;99.90
59015;DHT22;44799;53.382;14.666;2023-03-31T05:41:45;10.30;99.90
59015;DHT22;44799;53.382;14.666;2023-03-31T05:44:11;10.20;99.90
59015;DHT22;44799;53.382;14.666;2023-03-31T05:46:37;10.30;99.90
59015;DHT22;44799;53.382;14.666;2023-03-31T05:49:02;10.30;99.90
59015;DHT22;44799;53.382;14.666;2023-03-31T05:51:28;10.30;99.90
59015;DHT22;44799;53.382;14.666;2023-03-31T05:53:53;10.20;99.90
59015;DHT22;44799;53.382;14.666;2023-03-31T05:56:19;10.30;99.90
59015;DHT22;44799;53.382;14.666;2023-03-31T05:58:46;10.20;99.90
59015;DHT22;44799;53.382;14.666;2023-03-31T06:01:16;10.30;99.90
59015;DHT22;44799;53.382;14.666;2023-03-31T06:03:45;10.40;99.90
59015;DHT22;44799;53.382;14.666;2023-03-31T06:06:11;10.30;99.90
59015;DHT22;44799;53.382;14.666;2023-03-31T06:08:44;10.40;99.90
59015;DHT22;44799;53.382;14.666;2023-03-31T06:11:11;10.40;99.90
59015;DHT22;44799;53.382;14.666;2023-03-31T06:13:37;10.40;99.90
59015;DHT22;44799;53.382;14.666;2023-03-31T06:16:03;10.40;99.90
59015;DHT22;44799;53.382;14.666;2023-03-31T06:18:29;10.40;99.90
59015;DHT22;44799;53.382;14.666;2023-03-31T06:20:55;9.40;99.90
59015;DHT22;44799;53.382;14.666;2023-03-31T06:23:21;10.40;99.90
59015;DHT22;44799;53.382;14.666;2023-03-31T06:25:47;10.40;99.90
59015;DHT22;44799;53.382;14.666;2023-03-31T06:28:13;10.40;99.90
59015;DHT22;44799;53.382;14.666;2023-03-31T06:30:39;10.50;99.90
59015;DHT22;44799;53.382;14.666;2023-03-31T06:33:05;9.70;99.90
59015;DHT22;44799;53.382;14.666;2023-03-31T06:35:30;10.60;99.90
59015;DHT22;44799;53.382;14.666;2023-03-31T06:37:56;10.60;99.90
59015;DHT22;44799;53.382;14.666;2023-03-31T06:40:22;10.60;99.90
59015;DHT22;44799;53.382;14.666;2023-03-31T06:42:47;10.70;99.90
59015;DHT22;44799;53.382;14.666;2023-03-31T06:45:13;10.70;99.90
59015;DHT22;44799;53.382;14.666;2023-03-31T06:47:39;10.60;99.90
59015;DHT22;44799;53.382;14.666;2023-03-31T06:50:06;10.70;99.90
59015;DHT22;44799;53.382;14.666;2023-03-31T06:52:32;10.70;99.90
59015;DHT22;44799;53.382;14.666;2023-03-31T06:54:58;10.80;99.90
59015;DHT22;44799;53.382;14.666;2023-03-31T06:57:25;10.90;99.90
59015;DHT22;44799;53.382;14.666;2023-03-31T06:59:51;11.00;99.90
59015;DHT22;44799;53.382;14.666;2023-03-31T07:02:17;11.10;99.90
59015;DHT22;44799;53.382;14.666;2023-03-31T07:04:42;11.20;99.90
59015;DHT22;44799;53.382;14.666;2023-03-31T07:07:08;11.30;99.90
59015;DHT22;44799;53.382;14.666;2023-03-31T07:09:33;11.40;99.90
59015;DHT22;44799;53.382;14.666;2023-03-31T07:11:59;11.50;99.90
59015;DHT22;44799;53.382;14.666;2023-03-31T07:14:25;11.50;99.90
59015;DHT22;44799;53.382;14.666;2023-03-31T07:16:51;11.50;99.90
59015;DHT22;44799;53.382;14.666;2023-03-31T07:19:17;11.50;99.90
59015;DHT22;44799;53.382;14.666;2023-03-31T07:21:43;11.60;99.90
59015;DHT22;44799;53.382;14.666;2023-03-31T07:24:09;11.60;99.90
59015;DHT22;44799;53.382;14.666;2023-03-31T07:26:34;11.60;99.90
59015;DHT22;44799;53.382;14.666;2023-03-31T07:29:00;12.00;99.90
59015;DHT22;44799;53.382;14.666;2023-03-31T07:31:26;11.80;99.90
59015;DHT22;44799;53.382;14.666;2023-03-31T07:33:51;11.90;99.90
59015;DHT22;44799;53.382;14.666;2023-03-31T07:36:17;11.90;99.90
59015;DHT22;44799;53.382;14.666;2023-03-31T07:38:43;12.00;99.90
59015;DHT22;44799;53.382;14.666;2023-03-31T07:41:10;11.40;99.90
59015;DHT22;44799;53.382;14.666;2023-03-31T07:43:36;12.10;99.90
59015;DHT22;44799;53.382;14.666;2023-03-31T07:46:02;12.20;99.90
59015;DHT22;44799;53.382;14.666;2023-03-31T07:48:29;12.20;99.90
59015;DHT22;44799;53.382;14.666;2023-03-31T07:50:55;12.20;99.90
59015;DHT22;44799;53.382;14.666;2023-03-31T07:53:20;12.40;99.90
59015;DHT22;44799;53.382;14.666;2023-03-31T07:55:46;12.30;99.90
59015;DHT22;44799;53.382;14.666;2023-03-31T07:58:12;12.30;99.90
59015;DHT22;44799;53.382;14.666;2023-03-31T08:00:38;12.30;99.90
59015;DHT22;44799;53.382;14.666;2023-03-31T08:03:03;12.30;99.90
59015;DHT22;44799;53.382;14.666;2023-03-31T08:05:29;12.30;99.90
59015;DHT22;44799;53.382;14.666;2023-03-31T08:07:54;12.40;99.90
59015;DHT22;44799;53.382;14.666;2023-03-31T08:10:22;12.50;99.90
59015;DHT22;44799;53.382;14.666;2023-03-31T08:12:48;12.60;99.90
59015;DHT22;44799;53.382;14.666;2023-03-31T08:15:14;12.60;99.90
59015;DHT22;44799;53.382;14.666;2023-03-31T08:17:40;12.70;99.90
59015;DHT22;44799;53.382;14.666;2023-03-31T08:20:06;12.70;99.90
59015;DHT22;44799;53.382;14.666;2023-03-31T08:22:33;12.70;99.90
59015;DHT22;44799;53.382;14.666;2023-03-31T08:24:59;12.60;99.90
59015;DHT22;44799;53.382;14.666;2023-03-31T08:27:24;12.60;99.90
59015;DHT22;44799;53.382;14.666;2023-03-31T08:29:50;12.50;99.90
59015;DHT22;44799;53.382;14.666;2023-03-31T08:32:16;12.40;99.90
59015;DHT22;44799;53.382;14.666;2023-03-31T08:34:41;12.40;99.90
59015;DHT22;44799;53.382;14.666;2023-03-31T08:37:08;11.60;99.90
59015;DHT22;44799;53.382;14.666;2023-03-31T08:39:34;12.40;99.90
59015;DHT22;44799;53.382;14.666;2023-03-31T08:47:17;12.50;99.90
59015;DHT22;44799;53.382;14.666;2023-03-31T08:49:54;12.60;99.90
59015;DHT22;44799;53.382;14.666;2023-03-31T08:52:22;12.60;99.90
59015;DHT22;44799;53.382;14.666;2023-03-31T08:54:50;12.60;99.90
59015;DHT22;44799;53.382;14.666;2023-03-31T08:57:19;12.60;99.90
59015;DHT22;44799;53.382;14.666;2023-03-31T08:59:46;12.70;99.90
59015;DHT22;44799;53.382;14.666;2023-03-31T09:15:25;13.60;99.90
59015;DHT22;44799;53.382;14.666;2023-03-31T09:17:50;13.60;99.90
59015;DHT22;44799;53.382;14.666;2023-03-31T09:20:35;13.60;99.90
59015;DHT22;44799;53.382;14.666;2023-03-31T09:23:43;13.70;99.90
59015;DHT22;44799;53.382;14.666;2023-03-31T09:25:50;13.80;99.90
59015;DHT22;44799;53.382;14.666;2023-03-31T09:28:20;13.80;99.90
59015;DHT22;44799;53.382;14.666;2023-03-31T09:30:46;13.60;99.90
59015;DHT22;44799;53.382;14.666;2023-03-31T09:33:21;13.70;99.90
59015;DHT22;44799;53.382;14.666;2023-03-31T09:35:49;13.70;99.90
59015;DHT22;44799;53.382;14.666;2023-03-31T09:38:15;13.60;99.90
59015;DHT22;44799;53.382;14.666;2023-03-31T09:40:41;13.70;99.90
59015;DHT22;44799;53.382;14.666;2023-03-31T09:43:07;13.70;99.90
59015;DHT22;44799;53.382;14.666;2023-03-31T09:45:35;15.20;99.90
59015;DHT22;44799;53.382;14.666;2023-03-31T09:48:05;13.90;99.90
59015;DHT22;44799;53.382;14.666;2023-03-31T09:50:32;14.00;99.90
59015;DHT22;44799;53.382;14.666;2023-03-31T09:53:01;14.00;99.90
59015;DHT22;44799;53.382;14.666;2023-03-31T09:58:07;14.00;99.90
59015;DHT22;44799;53.382;14.666;2023-03-31T10:00:36;14.10;99.90
59015;DHT22;44799;53.382;14.666;2023-03-31T10:03:04;13.80;99.90
59015;DHT22;44799;53.382;14.666;2023-03-31T10:05:35;13.80;99.90
59015;DHT22;44799;53.382;14.666;2023-03-31T10:10:42;13.60;99.90
59015;DHT22;44799;53.382;14.666;2023-03-31T10:13:09;13.60;99.90
59015;DHT22;44799;53.382;14.666;2023-03-31T10:15:38;13.60;99.90
59015;DHT22;44799;53.382;14.666;2023-03-31T10:18:04;13.90;99.90
59015;DHT22;44799;53.382;14.666;2023-03-31T10:20:36;13.90;99.90
59015;DHT22;44799;53.382;14.666;2023-03-31T10:23:02;13.70;99.90
59015;DHT22;44799;53.382;14.666;2023-03-31T10:25:29;13.80;99.90
59015;DHT22;44799;53.382;14.666;2023-03-31T10:27:55;14.00;99.90
59015;DHT22;44799;53.382;14.666;2023-03-31T10:30:25;14.20;99.90
59015;DHT22;44799;53.382;14.666;2023-03-31T10:32:53;14.20;99.90
59015;DHT22;44799;53.382;14.666;2023-03-31T10:37:48;14.60;99.90
59015;DHT22;44799;53.382;14.666;2023-03-31T10:40:16;14.60;99.90
59015;DHT22;44799;53.382;14.666;2023-03-31T10:42:44;14.60;99.90
59015;DHT22;44799;53.382;14.666;2023-03-31T10:47:37;14.60;99.90
59015;DHT22;44799;53.382;14.666;2023-03-31T10:50:03;14.60;99.90
59015;DHT22;44799;53.382;14.666;2023-03-31T10:52:29;14.50;99.90
59015;DHT22;44799;53.382;14.666;2023-03-31T10:55:10;14.60;99.90
59015;DHT22;44799;53.382;14.666;2023-03-31T11:00:13;14.60;99.90
59015;DHT22;44799;53.382;14.666;2023-03-31T11:02:51;14.50;99.90
59015;DHT22;44799;53.382;14.666;2023-03-31T11:21:09;14.70;99.90
59015;DHT22;44799;53.382;14.666;2023-03-31T11:23:41;14.70;99.90
59015;DHT22;44799;53.382;14.666;2023-03-31T11:31:32;14.80;99.90
59015;DHT22;44799;53.382;14.666;2023-03-31T11:34:05;14.90;99.90
59015;DHT22;44799;53.382;14.666;2023-03-31T11:44:11;15.20;99.90
59015;DHT22;44799;53.382;14.666;2023-03-31T11:49:09;15.40;99.90
59015;DHT22;44799;53.382;14.666;2023-03-31T11:51:58;15.60;99.90
59015;DHT22;44799;53.382;14.666;2023-03-31T11:54:36;15.70;99.90
59015;DHT22;44799;53.382;14.666;2023-03-31T11:57:11;15.80;99.90
59015;DHT22;44799;53.382;14.666;2023-03-31T11:59:38;15.40;99.90
59015;DHT22;44799;53.382;14.666;2023-03-31T12:04:38;16.20;99.90
59015;DHT22;44799;53.382;14.666;2023-03-31T12:08:06;16.60;99.90
59015;DHT22;44799;53.382;14.666;2023-03-31T12:12:46;16.80;99.90
59015;DHT22;44799;53.382;14.666;2023-03-31T12:15:17;16.70;99.90
59015;DHT22;44799;53.382;14.666;2023-03-31T12:17:44;16.30;99.90
59015;DHT22;44799;53.382;14.666;2023-03-31T12:20:13;16.20;99.90
59015;DHT22;44799;53.382;14.666;2023-03-31T12:22:42;16.00;99.90
59015;DHT22;44799;53.382;14.666;2023-03-31T12:25:12;16.20;99.90
59015;DHT22;44799;53.382;14.666;2023-03-31T12:27:40;16.40;99.90
59015;DHT22;44799;53.382;14.666;2023-03-31T12:30:16;16.60;99.90
59015;DHT22;44799;53.382;14.666;2023-03-31T12:32:48;16.70;99.90
59015;DHT22;44799;53.382;14.666;2023-03-31T12:35:25;16.90;99.90
59015;DHT22;44799;53.382;14.666;2023-03-31T12:45:40;17.70;99.90
59015;DHT22;44799;53.382;14.666;2023-03-31T12:48:12;17.60;99.90
59015;DHT22;44799;53.382;14.666;2023-03-31T12:50:43;17.80;99.90
59015;DHT22;44799;53.382;14.666;2023-03-31T12:53:23;17.80;99.90
59015;DHT22;44799;53.382;14.666;2023-03-31T12:55:56;17.70;99.90
59015;DHT22;44799;53.382;14.666;2023-03-31T13:01:04;17.40;99.90
59015;DHT22;44799;53.382;14.666;2023-03-31T13:06:00;17.20;99.90
59015;DHT22;44799;53.382;14.666;2023-03-31T13:08:47;17.20;99.90
59015;DHT22;44799;53.382;14.666;2023-03-31T13:11:14;16.50;99.90
59015;DHT22;44799;53.382;14.666;2023-03-31T13:13:40;16.70;99.90
59015;DHT22;44799;53.382;14.666;2023-03-31T13:16:09;16.40;99.90
59015;DHT22;44799;53.382;14.666;2023-03-31T13:18:34;16.10;99.90
59015;DHT22;44799;53.382;14.666;2023-03-31T13:21:02;16.30;99.90
59015;DHT22;44799;53.382;14.666;2023-03-31T13:23:29;16.40;99.90
59015;DHT22;44799;53.382;14.666;2023-03-31T13:25:57;16.30;99.90
59015;DHT22;44799;53.382;14.666;2023-03-31T13:28:41;16.10;99.90
59015;DHT22;44799;53.382;14.666;2023-03-31T13:31:11;15.80;99.90
59015;DHT22;44799;53.382;14.666;2023-03-31T13:46:59;15.10;99.90
59015;DHT22;44799;53.382;14.666;2023-03-31T13:52:00;14.90;99.90
59015;DHT22;44799;53.382;14.666;2023-03-31T14:00:03;15.00;99.90
59015;DHT22;44799;53.382;14.666;2023-03-31T14:08:09;15.20;99.90
59015;DHT22;44799;53.382;14.666;2023-03-31T14:10:37;15.20;99.90
59015;DHT22;44799;53.382;14.666;2023-03-31T14:13:17;15.20;99.90
59015;DHT22;44799;53.382;14.666;2023-03-31T14:15:50;15.20;99.90
59015;DHT22;44799;53.382;14.666;2023-03-31T14:18:36;15.10;99.90
59015;DHT22;44799;53.382;14.666;2023-03-31T14:23:34;15.00;99.90
59015;DHT22;44799;53.382;14.666;2023-03-31T14:28:49;15.10;99.90
59015;DHT22;44799;53.382;14.666;2023-03-31T14:31:25;15.20;99.90
59015;DHT22;44799;53.382;14.666;2023-03-31T14:36:33;15.00;99.90
59015;DHT22;44799;53.382;14.666;2023-03-31T14:39:03;14.90;99.90
59015;DHT22;44799;53.382;14.666;2023-03-31T14:41:30;14.50;99.90
59015;DHT22;44799;53.382;14.666;2023-03-31T14:43:57;14.30;99.90
59015;DHT22;44799;53.382;14.666;2023-03-31T14:46:24;14.10;99.90
59015;DHT22;44799;53.382;14.666;2023-03-31T14:48:50;13.80;99.90
59015;DHT22;44799;53.382;14.666;2023-03-31T14:51:17;13.40;99.90
59015;DHT22;44799;53.382;14.666;2023-03-31T14:53:43;13.20;99.90
59015;DHT22;44799;53.382;14.666;2023-03-31T14:56:15;13.00;99.90
59015;DHT22;44799;53.382;14.666;2023-03-31T14:58:45;12.90;99.90
59015;DHT22;44799;53.382;14.666;2023-03-31T15:01:13;12.80;99.90
59015;DHT22;44799;53.382;14.666;2023-03-31T15:03:41;12.70;99.90
59015;DHT22;44799;53.382;14.666;2023-03-31T15:06:07;12.60;99.90
59015;DHT22;44799;53.382;14.666;2023-03-31T15:08:33;12.60;99.90
59015;DHT22;44799;53.382;14.666;2023-03-31T15:11:00;12.30;99.90
59015;DHT22;44799;53.382;14.666;2023-03-31T15:13:31;12.30;99.90
59015;DHT22;44799;53.382;14.666;2023-03-31T15:15:57;12.30;99.90
59015;DHT22;44799;53.382;14.666;2023-03-31T15:18:24;12.20;99.90
59015;DHT22;44799;53.382;14.666;2023-03-31T15:20:50;12.20;99.90
59015;DHT22;44799;53.382;14.666;2023-03-31T15:23:20;12.30;99.90
59015;DHT22;44799;53.382;14.666;2023-03-31T15:25:50;12.40;99.90
59015;DHT22;44799;53.382;14.666;2023-03-31T15:28:17;12.30;99.90
59015;DHT22;44799;53.382;14.666;2023-03-31T15:30:43;12.40;99.90
59015;DHT22;44799;53.382;14.666;2023-03-31T15:33:16;12.50;99.90
59015;DHT22;44799;53.382;14.666;2023-03-31T15:35:43;12.50;99.90
59015;DHT22;44799;53.382;14.666;2023-03-31T15:38:09;12.50;99.90
59015;DHT22;44799;53.382;14.666;2023-03-31T15:40:39;12.60;99.90
59015;DHT22;44799;53.382;14.666;2023-03-31T15:45:49;12.60;99.90
59015;DHT22;44799;53.382;14.666;2023-03-31T15:48:17;12.50;99.90
59015;DHT22;44799;53.382;14.666;2023-03-31T15:50:43;12.40;99.90
59015;DHT22;44799;53.382;14.666;2023-03-31T15:58:58;12.30;99.90
59015;DHT22;44799;53.382;14.666;2023-03-31T16:01:29;12.30;99.90
59015;DHT22;44799;53.382;14.666;2023-03-31T16:03:57;12.30;99.90
59015;DHT22;44799;53.382;14.666;2023-03-31T16:06:27;12.30;99.90
59015;DHT22;44799;53.382;14.666;2023-03-31T16:09:07;12.50;99.90
59015;DHT22;44799;53.382;14.666;2023-03-31T16:14:32;12.30;99.90
59015;DHT22;44799;53.382;14.666;2023-03-31T16:17:32;12.20;99.90
59015;DHT22;44799;53.382;14.666;2023-03-31T16:19:55;12.30;99.90
59015;DHT22;44799;53.382;14.666;2023-03-31T16:22:23;12.30;99.90
59015;DHT22;44799;53.382;14.666;2023-03-31T16:24:50;11.70;99.90
59015;DHT22;44799;53.382;14.666;2023-03-31T16:27:16;12.50;99.90
59015;DHT22;44799;53.382;14.666;2023-03-31T16:29:42;12.40;99.90
59015;DHT22;44799;53.382;14.666;2023-03-31T16:32:12;12.40;99.90
59015;DHT22;44799;53.382;14.666;2023-03-31T16:34:54;12.60;99.90
59015;DHT22;44799;53.382;14.666;2023-03-31T16:37:20;12.50;99.90
59015;DHT22;44799;53.382;14.666;2023-03-31T16:39:46;12.40;99.90
59015;DHT22;44799;53.382;14.666;2023-03-31T16:42:12;12.50;99.90
59015;DHT22;44799;53.382;14.666;2023-03-31T16:44:37;12.70;99.90
59015;DHT22;44799;53.382;14.666;2023-03-31T16:47:03;12.80;99.90
59015;DHT22;44799;53.382;14.666;2023-03-31T16:49:29;12.80;99.90
59015;DHT22;44799;53.382;14.666;2023-03-31T16:51:55;12.40;99.90
59015;DHT22;44799;53.382;14.666;2023-03-31T16:54:20;12.70;99.90
59015;DHT22;44799;53.382;14.666;2023-03-31T16:56:46;12.60;99.90
59015;DHT22;44799;53.382;14.666;2023-03-31T16:59:12;12.50;99.90
59015;DHT22;44799;53.382;14.666;2023-03-31T17:01:38;12.50;99.90
59015;DHT22;44799;53.382;14.666;2023-03-31T17:04:04;10.30;99.90
59015;DHT22;44799;53.382;14.666;2023-03-31T17:06:29;12.40;99.90
59015;DHT22;44799;53.382;14.666;2023-03-31T17:08:55;12.30;99.90
59015;DHT22;44799;53.382;14.666;2023-03-31T17:11:21;12.20;99.90
59015;DHT22;44799;53.382;14.666;2023-03-31T17:13:47;12.10;99.90
59015;DHT22;44799;53.382;14.666;2023-03-31T17:16:13;12.10;99.90
59015;DHT22;44799;53.382;14.666;2023-03-31T17:18:39;12.00;99.90
59015;DHT22;44799;53.382;14.666;2023-03-31T17:21:09;12.10;99.90
59015;DHT22;44799;53.382;14.666;2023-03-31T17:23:35;11.80;99.90
59015;DHT22;44799;53.382;14.666;2023-03-31T17:26:01;11.80;99.90
59015;DHT22;44799;53.382;14.666;2023-03-31T17:28:26;11.90;99.90
59015;DHT22;44799;53.382;14.666;2023-03-31T17:30:53;11.80;99.90
59015;DHT22;44799;53.382;14.666;2023-03-31T17:33:19;11.80;99.90
59015;DHT22;44799;53.382;14.666;2023-03-31T17:35:44;11.90;99.90
59015;DHT22;44799;53.382;14.666;2023-03-31T17:38:10;11.80;99.90
59015;DHT22;44799;53.382;14.666;2023-03-31T17:40:38;11.80;99.90
59015;DHT22;44799;53.382;14.666;2023-03-31T17:43:04;11.80;99.90
59015;DHT22;44799;53.382;14.666;2023-03-31T17:45:30;11.80;99.90
59015;DHT22;44799;53.382;14.666;2023-03-31T17:47:57;11.80;99.90
59015;DHT22;44799;53.382;14.666;2023-03-31T17:50:23;11.80;99.90
59015;DHT22;44799;53.382;14.666;2023-03-31T17:52:49;11.80;99.90
59015;DHT22;44799;53.382;14.666;2023-03-31T17:55:15;11.70;99.90
59015;DHT22;44799;53.382;14.666;2023-03-31T17:57:41;11.70;99.90
59015;DHT22;44799;53.382;14.666;2023-03-31T18:00:07;11.60;99.90
59015;DHT22;44799;53.382;14.666;2023-03-31T18:02:37;11.40;99.90
59015;DHT22;44799;53.382;14.666;2023-03-31T18:05:04;11.40;99.90
59015;DHT22;44799;53.382;14.666;2023-03-31T18:07:31;11.30;99.90
59015;DHT22;44799;53.382;14.666;2023-03-31T18:09:57;12.50;99.90
59015;DHT22;44799;53.382;14.666;2023-03-31T18:12:23;11.60;99.90
59015;DHT22;44799;53.382;14.666;2023-03-31T18:14:49;11.70;99.90